UZB1025 UZTT-UAAA
Flight info
| Callsign | UZB1025 |
|---|---|
| Flight time | N/A |
| Altitude | 35000 |
| Route | KOLAM N143 TAR Z817 AGLEK Z370 EKLAT EKLAT1Z |
| Aircraft | A320/M-SDE3FGHIRWY/LB1 |
Departure
| Time | 2026-04-17 19:35 |
|---|---|
| Airport | Tashkent International Airport (UZTT) |
Arrival
| Time | N/A |
|---|---|
| Airport | Almaty International Airport (UAAA) |
| Time | Latitude | Longitude | Altitude | Speed | Heading |
|---|---|---|---|---|---|
| 2026-04-17 19:14 | 41.26134 | 69.26761 | 1377 ft | 0 kts | 327° |
| 2026-04-17 19:26 | 41.26133 | 69.26762 | 1382 ft | 1 kts | 327° |
| 2026-04-17 19:26 | 41.26119 | 69.26775 | 1377 ft | 3 kts | 322° |
| 2026-04-17 19:27 | 41.26103 | 69.26792 | 1379 ft | 3 kts | 320° |
| 2026-04-17 19:27 | 41.26087 | 69.26808 | 1379 ft | 3 kts | 326° |
| 2026-04-17 19:27 | 41.26071 | 69.26824 | 1377 ft | 3 kts | 316° |
| 2026-04-17 19:27 | 41.26058 | 69.26843 | 1377 ft | 3 kts | 301° |
| 2026-04-17 19:28 | 41.26050 | 69.26867 | 1379 ft | 3 kts | 277° |
| 2026-04-17 19:28 | 41.26050 | 69.26887 | 1378 ft | 1 kts | 248° |
| 2026-04-17 19:28 | 41.26051 | 69.26889 | 1378 ft | 0 kts | 247° |
| 2026-04-17 19:31 | 41.26050 | 69.26887 | 1378 ft | 2 kts | 247° |
| 2026-04-17 19:31 | 41.26022 | 69.26798 | 1380 ft | 17 kts | 247° |
| 2026-04-17 19:31 | 41.25975 | 69.26656 | 1379 ft | 16 kts | 245° |
| 2026-04-17 19:32 | 41.25931 | 69.26524 | 1382 ft | 16 kts | 246° |
| 2026-04-17 19:32 | 41.25863 | 69.26430 | 1385 ft | 13 kts | 217° |
| 2026-04-17 19:32 | 41.25829 | 69.26395 | 1386 ft | 0 kts | 218° |
| 2026-04-17 19:32 | 41.25829 | 69.26396 | 1386 ft | 0 kts | 218° |
| 2026-04-17 19:33 | 41.25829 | 69.26395 | 1386 ft | 0 kts | 218° |
| 2026-04-17 19:33 | 41.25814 | 69.26379 | 1387 ft | 7 kts | 219° |
| 2026-04-17 19:33 | 41.25769 | 69.26326 | 1386 ft | 12 kts | 230° |
| 2026-04-17 19:34 | 41.25712 | 69.26182 | 1399 ft | 20 kts | 245° |
| 2026-04-17 19:34 | 41.25646 | 69.26084 | 1399 ft | 12 kts | 173° |
| 2026-04-17 19:34 | 41.25630 | 69.26151 | 1396 ft | 0 kts | 82° |
| 2026-04-17 19:34 | 41.25638 | 69.26233 | 1396 ft | 36 kts | 83° |
| 2026-04-17 19:35 | 41.25713 | 69.26896 | 1395 ft | 106 kts | 81° |
| 2026-04-17 19:35 | 41.25850 | 69.28095 | 1403 ft | 157 kts | 80° |
| 2026-04-17 19:35 | 41.26025 | 69.29537 | 1984 ft | 157 kts | 79° |
| 2026-04-17 19:35 | 41.26181 | 69.30989 | 2675 ft | 161 kts | 80° |
| 2026-04-17 19:36 | 41.26348 | 69.32549 | 3043 ft | 181 kts | 80° |
| 2026-04-17 19:36 | 41.26539 | 69.34306 | 3382 ft | 202 kts | 80° |
| 2026-04-17 19:36 | 41.26743 | 69.36187 | 4011 ft | 208 kts | 80° |
| 2026-04-17 19:36 | 41.26952 | 69.38127 | 4645 ft | 215 kts | 81° |
| 2026-04-17 19:37 | 41.27163 | 69.40107 | 5397 ft | 217 kts | 81° |
| 2026-04-17 19:37 | 41.27376 | 69.42107 | 6133 ft | 220 kts | 81° |
| 2026-04-17 19:37 | 41.27593 | 69.44124 | 6874 ft | 221 kts | 82° |
| 2026-04-17 19:37 | 41.27814 | 69.46169 | 7529 ft | 226 kts | 82° |
| 2026-04-17 19:38 | 41.28031 | 69.48267 | 8091 ft | 237 kts | 86° |
| 2026-04-17 19:38 | 41.27757 | 69.50497 | 8387 ft | 256 kts | 118° |
| 2026-04-17 19:38 | 41.26563 | 69.52313 | 8726 ft | 272 kts | 152° |
| 2026-04-17 19:38 | 41.24741 | 69.52956 | 9308 ft | 276 kts | 186° |
| 2026-04-17 19:39 | 41.22967 | 69.52148 | 10120 ft | 274 kts | 217° |
| 2026-04-17 19:39 | 41.21725 | 69.50192 | 10418 ft | 295 kts | 245° |
| 2026-04-17 19:39 | 41.20975 | 69.47546 | 10663 ft | 318 kts | 252° |
| 2026-04-17 19:39 | 41.20388 | 69.44658 | 11204 ft | 328 kts | 255° |
| 2026-04-17 19:40 | 41.19865 | 69.41690 | 11909 ft | 333 kts | 256° |
| 2026-04-17 19:40 | 41.19338 | 69.38677 | 12629 ft | 337 kts | 255° |
| 2026-04-17 19:40 | 41.18778 | 69.35632 | 13355 ft | 341 kts | 254° |
| 2026-04-17 19:40 | 41.18181 | 69.32567 | 14057 ft | 346 kts | 253° |
| 2026-04-17 19:41 | 41.17550 | 69.29465 | 14692 ft | 349 kts | 253° |
| 2026-04-17 19:41 | 41.16899 | 69.26349 | 15347 ft | 352 kts | 253° |
| 2026-04-17 19:41 | 41.16236 | 69.23213 | 16006 ft | 354 kts | 253° |
| 2026-04-17 19:41 | 41.15668 | 69.20019 | 16645 ft | 359 kts | 262° |
| 2026-04-17 19:42 | 41.15795 | 69.16684 | 17260 ft | 367 kts | 280° |
| 2026-04-17 19:42 | 41.16777 | 69.13513 | 17873 ft | 377 kts | 300° |
| 2026-04-17 19:42 | 41.18552 | 69.10901 | 18487 ft | 389 kts | 319° |
| 2026-04-17 19:42 | 41.20971 | 69.09214 | 19014 ft | 400 kts | 340° |
| 2026-04-17 19:43 | 41.23733 | 69.08557 | 19560 ft | 407 kts | 349° |
| 2026-04-17 19:43 | 41.26555 | 69.08070 | 20107 ft | 410 kts | 349° |
| 2026-04-17 19:43 | 41.29402 | 69.07618 | 20650 ft | 415 kts | 353° |
| 2026-04-17 19:43 | 41.32314 | 69.07693 | 21171 ft | 423 kts | 3° |
| 2026-04-17 19:44 | 41.35188 | 69.08439 | 21673 ft | 431 kts | 13° |
| 2026-04-17 19:44 | 41.38009 | 69.09879 | 22156 ft | 438 kts | 23° |
| 2026-04-17 19:44 | 41.40759 | 69.11677 | 22629 ft | 442 kts | 23° |
| 2026-04-17 19:44 | 41.43535 | 69.13498 | 23091 ft | 446 kts | 23° |
| 2026-04-17 19:45 | 41.46330 | 69.15336 | 23533 ft | 450 kts | 23° |
| 2026-04-17 19:45 | 41.49152 | 69.17190 | 23943 ft | 454 kts | 23° |
| 2026-04-17 19:45 | 41.51994 | 69.19055 | 24342 ft | 457 kts | 23° |
| 2026-04-17 19:45 | 41.54858 | 69.20932 | 24712 ft | 459 kts | 22° |
| 2026-04-17 19:46 | 41.57739 | 69.22818 | 25056 ft | 462 kts | 22° |
| 2026-04-17 19:46 | 41.60634 | 69.24718 | 25381 ft | 466 kts | 22° |
| 2026-04-17 19:46 | 41.63552 | 69.26640 | 25714 ft | 469 kts | 22° |
| 2026-04-17 19:46 | 41.66490 | 69.28581 | 26031 ft | 472 kts | 22° |
| 2026-04-17 19:47 | 41.69448 | 69.30539 | 26348 ft | 476 kts | 23° |
| 2026-04-17 19:47 | 41.72427 | 69.32514 | 26661 ft | 479 kts | 22° |
| 2026-04-17 19:47 | 41.75420 | 69.34499 | 27018 ft | 481 kts | 22° |
| 2026-04-17 19:47 | 41.78426 | 69.36493 | 27351 ft | 483 kts | 22° |
| 2026-04-17 19:48 | 41.81454 | 69.38507 | 27655 ft | 486 kts | 22° |
| 2026-04-17 19:48 | 41.84432 | 69.40704 | 27944 ft | 492 kts | 30° |
| 2026-04-17 19:48 | 41.87202 | 69.43449 | 28227 ft | 498 kts | 39° |
| 2026-04-17 19:48 | 41.89699 | 69.46620 | 28509 ft | 502 kts | 43° |
| 2026-04-17 19:49 | 41.92229 | 69.49952 | 28784 ft | 505 kts | 43° |
| 2026-04-17 19:49 | 41.94746 | 69.53265 | 29027 ft | 508 kts | 43° |
| 2026-04-17 19:49 | 41.97281 | 69.56603 | 29242 ft | 512 kts | 43° |
| 2026-04-17 19:49 | 41.99792 | 69.59913 | 29575 ft | 513 kts | 43° |
| 2026-04-17 19:50 | 42.02343 | 69.63277 | 29849 ft | 514 kts | 43° |
| 2026-04-17 19:50 | 42.04901 | 69.66657 | 30090 ft | 517 kts | 43° |
| 2026-04-17 19:50 | 42.07466 | 69.70048 | 30352 ft | 518 kts | 43° |
| 2026-04-17 19:50 | 42.10036 | 69.73452 | 30620 ft | 518 kts | 43° |
| 2026-04-17 19:51 | 42.12607 | 69.76858 | 30874 ft | 519 kts | 43° |
| 2026-04-17 19:51 | 42.15181 | 69.80274 | 31120 ft | 519 kts | 43° |
| 2026-04-17 19:51 | 42.17754 | 69.83694 | 31376 ft | 520 kts | 43° |
| 2026-04-17 19:51 | 42.20333 | 69.87122 | 31621 ft | 521 kts | 43° |
| 2026-04-17 19:52 | 42.22919 | 69.90562 | 31831 ft | 523 kts | 43° |
| 2026-04-17 19:52 | 42.25506 | 69.94012 | 32143 ft | 522 kts | 43° |
| 2026-04-17 19:52 | 42.28084 | 69.97455 | 32443 ft | 522 kts | 43° |
| 2026-04-17 19:52 | 42.30668 | 70.00913 | 32714 ft | 522 kts | 43° |
| 2026-04-17 19:53 | 42.33250 | 70.04369 | 32971 ft | 523 kts | 43° |
| 2026-04-17 19:53 | 42.35833 | 70.07830 | 33224 ft | 524 kts | 43° |
| 2026-04-17 19:53 | 42.37548 | 70.10130 | 33399 ft | 524 kts | 43° |
| 2026-04-17 19:53 | 42.40136 | 70.13605 | 33652 ft | 525 kts | 43° |
| 2026-04-17 19:54 | 42.42729 | 70.17093 | 33894 ft | 525 kts | 43° |
| 2026-04-17 19:54 | 42.45319 | 70.20581 | 34164 ft | 526 kts | 42° |
| 2026-04-17 19:54 | 42.48764 | 70.25224 | 34450 ft | 527 kts | 43° |
| 2026-04-17 19:54 | 42.50520 | 70.27596 | 34634 ft | 527 kts | 42° |
| 2026-04-17 19:55 | 42.53091 | 70.31125 | 34945 ft | 525 kts | 47° |
| 2026-04-17 19:55 | 42.55218 | 70.35142 | 35215 ft | 525 kts | 62° |
| 2026-04-17 19:55 | 42.56603 | 70.39631 | 35298 ft | 522 kts | 74° |
| 2026-04-17 19:56 | 42.58792 | 70.49022 | 35315 ft | 521 kts | 75° |
| 2026-04-17 19:56 | 42.60961 | 70.58421 | 35314 ft | 523 kts | 74° |
| 2026-04-17 19:57 | 42.63150 | 70.67848 | 35321 ft | 524 kts | 74° |
| 2026-04-17 19:57 | 42.65339 | 70.77294 | 35326 ft | 524 kts | 74° |
| 2026-04-17 19:58 | 42.67514 | 70.86750 | 35324 ft | 524 kts | 74° |
| 2026-04-17 19:58 | 42.69685 | 70.96218 | 35330 ft | 525 kts | 74° |
| 2026-04-17 19:59 | 42.71852 | 71.05689 | 35329 ft | 525 kts | 74° |
| 2026-04-17 19:59 | 42.74017 | 71.15183 | 35329 ft | 525 kts | 74° |
| 2026-04-17 20:00 | 42.76163 | 71.24689 | 35327 ft | 525 kts | 75° |
| 2026-04-17 20:00 | 42.78300 | 71.34197 | 35312 ft | 525 kts | 75° |
| 2026-04-17 20:01 | 42.80441 | 71.43715 | 35319 ft | 526 kts | 75° |
| 2026-04-17 20:01 | 42.82567 | 71.53236 | 35323 ft | 525 kts | 75° |
| 2026-04-17 20:02 | 42.84686 | 71.62783 | 35322 ft | 526 kts | 75° |
| 2026-04-17 20:02 | 42.86789 | 71.72270 | 35320 ft | 526 kts | 75° |
| 2026-04-17 20:03 | 42.88902 | 71.81832 | 35316 ft | 526 kts | 75° |
| 2026-04-17 20:03 | 42.91004 | 71.91388 | 35317 ft | 527 kts | 74° |
| 2026-04-17 20:04 | 42.93098 | 72.00968 | 35319 ft | 527 kts | 74° |
| 2026-04-17 20:04 | 42.95182 | 72.10570 | 35321 ft | 528 kts | 74° |
| 2026-04-17 20:05 | 42.97264 | 72.20177 | 35319 ft | 528 kts | 74° |
| 2026-04-17 20:05 | 42.99345 | 72.29802 | 35326 ft | 528 kts | 74° |